Coluna, Brazil
Current Conditions -  °F | °C
As of 6:15 AM on Tuesday 21 Oct 2014 (Local Time) from SBIP Reporting Station
Drizzle Drizzle  
Wind Chill: 72°   Ceiling: 2000
Heat Index: 72°   Visibility: 1.2mi
Dew Point: 68°   Wind: 3mph
Humidity: 88%   Direction: 240°WSW
Pressure: NA   Gusts: NA
Location:  18.23°S, 42.84°W
Report Text: SBIP 210815Z 24003KT 2000 -DZ BR SCT010 BKN020 OVC040 22/20 Q1016
Loading
Personal Weather Stations






























Interactive Weather Map
Tropical Storm Tracking
New forecast layout! Learn more

10-Day Weather Forecast

Advertisements
Track Severe Weather on mobile